sensor_id;sensor_type;location;lat;lon;timestamp;temperature;humidity
30047;DHT22;16878;52.542;13.426;2023-02-26T00:00:38;0.90;99.90
30047;DHT22;16878;52.542;13.426;2023-02-26T00:03:04;0.90;99.90
30047;DHT22;16878;52.542;13.426;2023-02-26T00:05:33;0.80;99.90
30047;DHT22;16878;52.542;13.426;2023-02-26T00:07:58;0.80;99.90
30047;DHT22;16878;52.542;13.426;2023-02-26T00:10:24;0.80;99.90
30047;DHT22;16878;52.542;13.426;2023-02-26T00:12:50;0.80;99.90
30047;DHT22;16878;52.542;13.426;2023-02-26T00:15:16;0.80;99.90
30047;DHT22;16878;52.542;13.426;2023-02-26T00:18:02;0.80;99.90
30047;DHT22;16878;52.542;13.426;2023-02-26T00:20:29;0.90;99.90
30047;DHT22;16878;52.542;13.426;2023-02-26T00:22:54;0.90;99.90
30047;DHT22;16878;52.542;13.426;2023-02-26T00:25:21;0.90;99.90
30047;DHT22;16878;52.542;13.426;2023-02-26T00:27:47;1.00;99.90
30047;DHT22;16878;52.542;13.426;2023-02-26T00:30:13;1.00;99.90
30047;DHT22;16878;52.542;13.426;2023-02-26T00:32:39;1.00;99.90
30047;DHT22;16878;52.542;13.426;2023-02-26T00:35:07;1.00;99.90
30047;DHT22;16878;52.542;13.426;2023-02-26T00:40:24;1.00;99.90
30047;DHT22;16878;52.542;13.426;2023-02-26T00:42:54;1.00;99.90
30047;DHT22;16878;52.542;13.426;2023-02-26T00:45:20;1.00;99.90
30047;DHT22;16878;52.542;13.426;2023-02-26T00:50:31;1.10;99.90
30047;DHT22;16878;52.542;13.426;2023-02-26T00:55:25;1.10;99.90
30047;DHT22;16878;52.542;13.426;2023-02-26T00:57:51;1.10;99.90
30047;DHT22;16878;52.542;13.426;2023-02-26T01:00:17;1.10;99.90
30047;DHT22;16878;52.542;13.426;2023-02-26T01:02:44;1.10;99.90
30047;DHT22;16878;52.542;13.426;2023-02-26T01:05:10;1.20;99.90
30047;DHT22;16878;52.542;13.426;2023-02-26T01:08:04;1.20;99.90
30047;DHT22;16878;52.542;13.426;2023-02-26T01:10:33;1.20;99.90
30047;DHT22;16878;52.542;13.426;2023-02-26T01:12:59;1.20;99.90
30047;DHT22;16878;52.542;13.426;2023-02-26T01:15:25;1.20;99.90
30047;DHT22;16878;52.542;13.426;2023-02-26T01:17:57;1.20;99.90
30047;DHT22;16878;52.542;13.426;2023-02-26T01:20:28;1.20;99.90
30047;DHT22;16878;52.542;13.426;2023-02-26T01:23:08;1.20;99.90
30047;DHT22;16878;52.542;13.426;2023-02-26T01:28:07;1.20;99.90
30047;DHT22;16878;52.542;13.426;2023-02-26T01:30:33;1.20;99.90
30047;DHT22;16878;52.542;13.426;2023-02-26T01:35:57;1.20;99.90
30047;DHT22;16878;52.542;13.426;2023-02-26T01:38:57;1.20;99.90
30047;DHT22;16878;52.542;13.426;2023-02-26T01:41:48;1.20;99.90
30047;DHT22;16878;52.542;13.426;2023-02-26T01:44:25;1.20;99.90
30047;DHT22;16878;52.542;13.426;2023-02-26T01:49:30;1.20;99.90
30047;DHT22;16878;52.542;13.426;2023-02-26T01:52:01;1.20;99.90
30047;DHT22;16878;52.542;13.426;2023-02-26T01:54:36;1.20;99.90
30047;DHT22;16878;52.542;13.426;2023-02-26T01:59:30;1.20;99.90
30047;DHT22;16878;52.542;13.426;2023-02-26T02:01:57;1.20;99.90
30047;DHT22;16878;52.542;13.426;2023-02-26T02:04:24;1.20;99.90
30047;DHT22;16878;52.542;13.426;2023-02-26T02:06:52;1.20;99.90
30047;DHT22;16878;52.542;13.426;2023-02-26T02:09:18;1.20;99.90
30047;DHT22;16878;52.542;13.426;2023-02-26T02:12:12;1.30;99.90
30047;DHT22;16878;52.542;13.426;2023-02-26T02:28:36;1.30;99.90
30047;DHT22;16878;52.542;13.426;2023-02-26T02:31:23;1.30;99.90
30047;DHT22;16878;52.542;13.426;2023-02-26T02:34:10;1.30;99.90
30047;DHT22;16878;52.542;13.426;2023-02-26T02:39:45;1.30;99.90
30047;DHT22;16878;52.542;13.426;2023-02-26T02:44:47;1.30;99.90
30047;DHT22;16878;52.542;13.426;2023-02-26T02:47:14;1.30;99.90
30047;DHT22;16878;52.542;13.426;2023-02-26T02:50:06;1.30;99.90
30047;DHT22;16878;52.542;13.426;2023-02-26T02:52:47;1.30;99.90
30047;DHT22;16878;52.542;13.426;2023-02-26T02:55:24;1.30;99.90
30047;DHT22;16878;52.542;13.426;2023-02-26T02:58:01;1.30;99.90
30047;DHT22;16878;52.542;13.426;2023-02-26T03:00:31;1.20;99.90
30047;DHT22;16878;52.542;13.426;2023-02-26T03:05:36;1.20;99.90
30047;DHT22;16878;52.542;13.426;2023-02-26T03:08:05;1.20;99.90
30047;DHT22;16878;52.542;13.426;2023-02-26T03:10:32;1.20;99.90
30047;DHT22;16878;52.542;13.426;2023-02-26T03:12:58;1.20;99.90
30047;DHT22;16878;52.542;13.426;2023-02-26T03:15:46;1.20;99.90
30047;DHT22;16878;52.542;13.426;2023-02-26T03:23:32;1.20;99.90
30047;DHT22;16878;52.542;13.426;2023-02-26T03:26:12;1.20;99.90
30047;DHT22;16878;52.542;13.426;2023-02-26T03:28:49;1.10;99.90
30047;DHT22;16878;52.542;13.426;2023-02-26T03:31:29;1.10;99.90
30047;DHT22;16878;52.542;13.426;2023-02-26T03:34:05;1.10;99.90
30047;DHT22;16878;52.542;13.426;2023-02-26T03:36:56;1.10;99.90
30047;DHT22;16878;52.542;13.426;2023-02-26T03:39:38;1.10;99.90
30047;DHT22;16878;52.542;13.426;2023-02-26T03:42:29;1.10;99.90
30047;DHT22;16878;52.542;13.426;2023-02-26T03:45:01;1.10;99.90
30047;DHT22;16878;52.542;13.426;2023-02-26T03:47:30;1.10;99.90
30047;DHT22;16878;52.542;13.426;2023-02-26T03:50:13;1.10;99.90
30047;DHT22;16878;52.542;13.426;2023-02-26T03:52:43;1.10;99.90
30047;DHT22;16878;52.542;13.426;2023-02-26T03:55:20;1.10;99.90
30047;DHT22;16878;52.542;13.426;2023-02-26T03:57:47;1.10;99.90
30047;DHT22;16878;52.542;13.426;2023-02-26T04:00:14;1.10;99.90
30047;DHT22;16878;52.542;13.426;2023-02-26T04:05:26;1.20;99.90
30047;DHT22;16878;52.542;13.426;2023-02-26T04:07:53;1.20;99.90
30047;DHT22;16878;52.542;13.426;2023-02-26T04:10:29;1.20;99.90
30047;DHT22;16878;52.542;13.426;2023-02-26T04:13:01;1.20;99.90
30047;DHT22;16878;52.542;13.426;2023-02-26T04:15:27;1.20;99.90
30047;DHT22;16878;52.542;13.426;2023-02-26T04:17:53;1.20;99.90
30047;DHT22;16878;52.542;13.426;2023-02-26T04:20:18;1.20;99.90
30047;DHT22;16878;52.542;13.426;2023-02-26T04:22:44;1.20;99.90
30047;DHT22;16878;52.542;13.426;2023-02-26T04:25:10;1.20;99.90
30047;DHT22;16878;52.542;13.426;2023-02-26T04:27:36;1.20;99.90
30047;DHT22;16878;52.542;13.426;2023-02-26T04:30:01;1.20;99.90
30047;DHT22;16878;52.542;13.426;2023-02-26T04:32:27;1.20;99.90
30047;DHT22;16878;52.542;13.426;2023-02-26T04:34:53;1.20;99.90
30047;DHT22;16878;52.542;13.426;2023-02-26T04:37:18;1.20;99.90
30047;DHT22;16878;52.542;13.426;2023-02-26T04:39:44;1.20;99.90
30047;DHT22;16878;52.542;13.426;2023-02-26T04:42:10;1.20;99.90
30047;DHT22;16878;52.542;13.426;2023-02-26T04:44:35;1.20;99.90
30047;DHT22;16878;52.542;13.426;2023-02-26T04:47:01;1.20;99.90
30047;DHT22;16878;52.542;13.426;2023-02-26T04:49:27;1.20;99.90
30047;DHT22;16878;52.542;13.426;2023-02-26T04:51:52;1.20;99.90
30047;DHT22;16878;52.542;13.426;2023-02-26T04:54:18;1.20;99.90
30047;DHT22;16878;52.542;13.426;2023-02-26T04:56:44;1.20;99.90
30047;DHT22;16878;52.542;13.426;2023-02-26T04:59:09;1.20;99.90
30047;DHT22;16878;52.542;13.426;2023-02-26T05:01:35;1.20;99.90
30047;DHT22;16878;52.542;13.426;2023-02-26T05:04:01;1.30;99.90
30047;DHT22;16878;52.542;13.426;2023-02-26T05:06:27;1.20;99.90
30047;DHT22;16878;52.542;13.426;2023-02-26T05:08:52;1.20;99.90
30047;DHT22;16878;52.542;13.426;2023-02-26T05:11:18;1.30;99.90
30047;DHT22;16878;52.542;13.426;2023-02-26T05:13:44;1.30;99.90
30047;DHT22;16878;52.542;13.426;2023-02-26T05:16:10;1.30;99.90
30047;DHT22;16878;52.542;13.426;2023-02-26T05:18:36;1.30;99.90
30047;DHT22;16878;52.542;13.426;2023-02-26T05:21:05;1.30;99.90
30047;DHT22;16878;52.542;13.426;2023-02-26T05:23:31;1.30;99.90
30047;DHT22;16878;52.542;13.426;2023-02-26T05:25:57;1.30;99.90
30047;DHT22;16878;52.542;13.426;2023-02-26T05:28:25;1.30;99.90
30047;DHT22;16878;52.542;13.426;2023-02-26T05:30:50;1.30;99.90
30047;DHT22;16878;52.542;13.426;2023-02-26T05:33:16;1.20;99.90
30047;DHT22;16878;52.542;13.426;2023-02-26T05:35:42;1.20;99.90
30047;DHT22;16878;52.542;13.426;2023-02-26T05:38:08;1.20;99.90
30047;DHT22;16878;52.542;13.426;2023-02-26T05:40:34;1.20;99.90
30047;DHT22;16878;52.542;13.426;2023-02-26T05:42:59;1.20;99.90
30047;DHT22;16878;52.542;13.426;2023-02-26T05:45:25;1.20;99.90
30047;DHT22;16878;52.542;13.426;2023-02-26T05:47:51;1.30;99.90
30047;DHT22;16878;52.542;13.426;2023-02-26T05:50:16;1.20;99.90
30047;DHT22;16878;52.542;13.426;2023-02-26T05:52:42;1.20;99.90
30047;DHT22;16878;52.542;13.426;2023-02-26T05:55:08;1.20;99.90
30047;DHT22;16878;52.542;13.426;2023-02-26T05:57:34;1.30;99.90
30047;DHT22;16878;52.542;13.426;2023-02-26T06:00:00;1.20;99.90
30047;DHT22;16878;52.542;13.426;2023-02-26T06:02:25;1.20;99.90
30047;DHT22;16878;52.542;13.426;2023-02-26T06:04:51;1.20;99.90
30047;DHT22;16878;52.542;13.426;2023-02-26T06:07:17;1.20;99.90
30047;DHT22;16878;52.542;13.426;2023-02-26T06:09:42;1.30;99.90
30047;DHT22;16878;52.542;13.426;2023-02-26T06:12:08;1.30;99.90
30047;DHT22;16878;52.542;13.426;2023-02-26T06:14:35;1.30;99.90
30047;DHT22;16878;52.542;13.426;2023-02-26T06:17:03;1.30;99.90
30047;DHT22;16878;52.542;13.426;2023-02-26T06:19:29;1.30;99.90
30047;DHT22;16878;52.542;13.426;2023-02-26T06:21:55;1.30;99.90
30047;DHT22;16878;52.542;13.426;2023-02-26T06:24:20;1.30;99.90
30047;DHT22;16878;52.542;13.426;2023-02-26T06:26:46;1.30;99.90
30047;DHT22;16878;52.542;13.426;2023-02-26T06:29:12;1.30;99.90
30047;DHT22;16878;52.542;13.426;2023-02-26T06:31:37;1.30;99.90
30047;DHT22;16878;52.542;13.426;2023-02-26T06:34:03;1.30;99.90
30047;DHT22;16878;52.542;13.426;2023-02-26T06:36:29;1.40;99.90
30047;DHT22;16878;52.542;13.426;2023-02-26T06:38:55;1.40;99.90
30047;DHT22;16878;52.542;13.426;2023-02-26T06:41:21;1.40;99.90
30047;DHT22;16878;52.542;13.426;2023-02-26T06:43:46;1.40;99.90
30047;DHT22;16878;52.542;13.426;2023-02-26T06:46:12;1.50;99.90
30047;DHT22;16878;52.542;13.426;2023-02-26T06:48:38;1.60;99.90
30047;DHT22;16878;52.542;13.426;2023-02-26T06:51:04;1.70;99.90
30047;DHT22;16878;52.542;13.426;2023-02-26T06:53:29;1.80;99.90
30047;DHT22;16878;52.542;13.426;2023-02-26T06:55:55;1.80;99.90
30047;DHT22;16878;52.542;13.426;2023-02-26T06:58:21;1.90;99.90
30047;DHT22;16878;52.542;13.426;2023-02-26T07:00:48;2.00;99.90
30047;DHT22;16878;52.542;13.426;2023-02-26T07:03:16;2.00;99.90
30047;DHT22;16878;52.542;13.426;2023-02-26T07:05:43;2.00;99.90
30047;DHT22;16878;52.542;13.426;2023-02-26T07:08:09;2.00;99.90
30047;DHT22;16878;52.542;13.426;2023-02-26T07:10:36;2.10;99.90
30047;DHT22;16878;52.542;13.426;2023-02-26T07:13:02;2.00;99.90
30047;DHT22;16878;52.542;13.426;2023-02-26T07:15:28;1.90;99.90
30047;DHT22;16878;52.542;13.426;2023-02-26T07:17:54;1.70;99.90
30047;DHT22;16878;52.542;13.426;2023-02-26T07:20:20;1.60;99.90
30047;DHT22;16878;52.542;13.426;2023-02-26T07:22:47;1.50;99.90
30047;DHT22;16878;52.542;13.426;2023-02-26T07:25:14;1.40;99.90
30047;DHT22;16878;52.542;13.426;2023-02-26T07:27:40;1.40;99.90
30047;DHT22;16878;52.542;13.426;2023-02-26T07:30:06;1.40;99.90
30047;DHT22;16878;52.542;13.426;2023-02-26T07:32:32;1.30;99.90
30047;DHT22;16878;52.542;13.426;2023-02-26T07:34:58;1.40;99.90
30047;DHT22;16878;52.542;13.426;2023-02-26T07:37:24;1.40;99.90
30047;DHT22;16878;52.542;13.426;2023-02-26T07:39:50;1.40;99.90
30047;DHT22;16878;52.542;13.426;2023-02-26T07:42:16;1.50;99.90
30047;DHT22;16878;52.542;13.426;2023-02-26T07:44:43;1.60;99.90
30047;DHT22;16878;52.542;13.426;2023-02-26T07:47:09;1.70;99.90
30047;DHT22;16878;52.542;13.426;2023-02-26T07:49:35;1.90;99.90
30047;DHT22;16878;52.542;13.426;2023-02-26T07:52:01;2.00;99.90
30047;DHT22;16878;52.542;13.426;2023-02-26T07:54:27;2.10;99.90
30047;DHT22;16878;52.542;13.426;2023-02-26T07:56:53;1.90;99.90
30047;DHT22;16878;52.542;13.426;2023-02-26T07:59:18;1.80;99.90
30047;DHT22;16878;52.542;13.426;2023-02-26T08:01:44;1.80;99.90
30047;DHT22;16878;52.542;13.426;2023-02-26T08:04:10;1.80;99.90
30047;DHT22;16878;52.542;13.426;2023-02-26T08:06:35;1.70;99.90
30047;DHT22;16878;52.542;13.426;2023-02-26T08:09:02;1.80;99.90
30047;DHT22;16878;52.542;13.426;2023-02-26T08:11:28;1.80;99.90
30047;DHT22;16878;52.542;13.426;2023-02-26T08:13:53;1.90;99.90
30047;DHT22;16878;52.542;13.426;2023-02-26T08:16:19;1.90;99.90
30047;DHT22;16878;52.542;13.426;2023-02-26T08:18:45;1.90;99.90
30047;DHT22;16878;52.542;13.426;2023-02-26T08:21:11;1.90;99.90
30047;DHT22;16878;52.542;13.426;2023-02-26T08:23:37;1.90;99.90
30047;DHT22;16878;52.542;13.426;2023-02-26T08:26:08;1.90;99.90
30047;DHT22;16878;52.542;13.426;2023-02-26T08:28:34;2.00;99.90
30047;DHT22;16878;52.542;13.426;2023-02-26T08:31:00;2.00;99.90
30047;DHT22;16878;52.542;13.426;2023-02-26T08:33:26;2.10;99.90
30047;DHT22;16878;52.542;13.426;2023-02-26T08:35:52;2.10;99.90
30047;DHT22;16878;52.542;13.426;2023-02-26T08:38:19;2.20;99.90
30047;DHT22;16878;52.542;13.426;2023-02-26T08:40:47;2.20;99.90
30047;DHT22;16878;52.542;13.426;2023-02-26T08:43:13;2.30;99.90
30047;DHT22;16878;52.542;13.426;2023-02-26T08:45:39;2.30;99.90
30047;DHT22;16878;52.542;13.426;2023-02-26T08:48:04;2.30;99.90
30047;DHT22;16878;52.542;13.426;2023-02-26T08:50:31;2.40;99.90
30047;DHT22;16878;52.542;13.426;2023-02-26T08:52:56;2.40;99.90
30047;DHT22;16878;52.542;13.426;2023-02-26T08:55:23;2.50;99.90
30047;DHT22;16878;52.542;13.426;2023-02-26T08:57:49;2.50;99.90
30047;DHT22;16878;52.542;13.426;2023-02-26T09:00:15;2.50;99.90
30047;DHT22;16878;52.542;13.426;2023-02-26T09:02:43;2.60;99.90
30047;DHT22;16878;52.542;13.426;2023-02-26T09:05:09;2.60;99.90
30047;DHT22;16878;52.542;13.426;2023-02-26T09:07:35;2.60;99.90
30047;DHT22;16878;52.542;13.426;2023-02-26T09:10:00;2.70;99.90
30047;DHT22;16878;52.542;13.426;2023-02-26T09:12:26;2.70;99.90
30047;DHT22;16878;52.542;13.426;2023-02-26T09:14:52;2.70;99.90
30047;DHT22;16878;52.542;13.426;2023-02-26T09:17:18;2.70;99.90
30047;DHT22;16878;52.542;13.426;2023-02-26T09:19:43;2.70;99.90
30047;DHT22;16878;52.542;13.426;2023-02-26T09:22:09;2.80;99.90
30047;DHT22;16878;52.542;13.426;2023-02-26T09:24:35;2.80;99.90
30047;DHT22;16878;52.542;13.426;2023-02-26T09:27:01;2.90;99.90
30047;DHT22;16878;52.542;13.426;2023-02-26T09:29:28;2.90;99.90
30047;DHT22;16878;52.542;13.426;2023-02-26T09:31:54;2.80;99.90
30047;DHT22;16878;52.542;13.426;2023-02-26T09:34:20;2.90;99.90
30047;DHT22;16878;52.542;13.426;2023-02-26T09:36:45;3.00;99.90
30047;DHT22;16878;52.542;13.426;2023-02-26T09:39:11;3.00;99.90
30047;DHT22;16878;52.542;13.426;2023-02-26T09:41:43;3.10;99.90
30047;DHT22;16878;52.542;13.426;2023-02-26T09:44:18;3.10;99.90
30047;DHT22;16878;52.542;13.426;2023-02-26T09:49:30;3.10;99.90
30047;DHT22;16878;52.542;13.426;2023-02-26T09:52:10;3.20;99.90
30047;DHT22;16878;52.542;13.426;2023-02-26T09:54:46;3.30;99.90
30047;DHT22;16878;52.542;13.426;2023-02-26T09:57:38;3.40;99.90
30047;DHT22;16878;52.542;13.426;2023-02-26T10:05:52;3.90;99.90
30047;DHT22;16878;52.542;13.426;2023-02-26T10:08:22;3.80;99.90
30047;DHT22;16878;52.542;13.426;2023-02-26T10:13:33;3.70;99.90
30047;DHT22;16878;52.542;13.426;2023-02-26T10:16:06;3.90;99.90
30047;DHT22;16878;52.542;13.426;2023-02-26T10:18:36;4.00;99.90
30047;DHT22;16878;52.542;13.426;2023-02-26T10:21:10;4.00;99.90
30047;DHT22;16878;52.542;13.426;2023-02-26T10:23:40;4.20;99.90
30047;DHT22;16878;52.542;13.426;2023-02-26T10:29:05;4.30;99.90
30047;DHT22;16878;52.542;13.426;2023-02-26T10:31:56;4.40;99.20
30047;DHT22;16878;52.542;13.426;2023-02-26T10:34:36;4.30;98.00
30047;DHT22;16878;52.542;13.426;2023-02-26T10:37:35;4.20;98.40
30047;DHT22;16878;52.542;13.426;2023-02-26T10:40:28;4.40;98.90
30047;DHT22;16878;52.542;13.426;2023-02-26T10:43:03;4.40;98.70
30047;DHT22;16878;52.542;13.426;2023-02-26T10:51:22;4.60;97.30
30047;DHT22;16878;52.542;13.426;2023-02-26T10:56:43;5.00;93.80
30047;DHT22;16878;52.542;13.426;2023-02-26T10:59:08;5.10;93.30
30047;DHT22;16878;52.542;13.426;2023-02-26T11:01:35;5.10;92.80
30047;DHT22;16878;52.542;13.426;2023-02-26T11:04:08;5.00;93.30
30047;DHT22;16878;52.542;13.426;2023-02-26T11:09:19;5.20;91.90
30047;DHT22;16878;52.542;13.426;2023-02-26T11:11:55;4.90;91.70
30047;DHT22;16878;52.542;13.426;2023-02-26T11:14:26;4.80;90.80
30047;DHT22;16878;52.542;13.426;2023-02-26T11:16:55;4.60;90.50
30047;DHT22;16878;52.542;13.426;2023-02-26T11:19:31;4.60;90.40
30047;DHT22;16878;52.542;13.426;2023-02-26T11:21:58;4.50;90.10
30047;DHT22;16878;52.542;13.426;2023-02-26T11:24:41;4.50;89.80
30047;DHT22;16878;52.542;13.426;2023-02-26T11:27:35;4.40;88.80
30047;DHT22;16878;52.542;13.426;2023-02-26T11:30:26;4.80;89.50
30047;DHT22;16878;52.542;13.426;2023-02-26T11:32:52;5.30;88.60
30047;DHT22;16878;52.542;13.426;2023-02-26T11:35:22;5.30;86.20
30047;DHT22;16878;52.542;13.426;2023-02-26T11:37:52;5.20;89.30
30047;DHT22;16878;52.542;13.426;2023-02-26T11:40:40;5.00;90.90
30047;DHT22;16878;52.542;13.426;2023-02-26T11:43:21;4.90;91.60
30047;DHT22;16878;52.542;13.426;2023-02-26T11:45:53;4.70;91.00
30047;DHT22;16878;52.542;13.426;2023-02-26T11:51:25;4.90;90.50
30047;DHT22;16878;52.542;13.426;2023-02-26T11:53:54;5.00;90.30
30047;DHT22;16878;52.542;13.426;2023-02-26T11:56:38;4.90;90.40
30047;DHT22;16878;52.542;13.426;2023-02-26T11:59:22;4.80;89.60
30047;DHT22;16878;52.542;13.426;2023-02-26T12:01:49;4.50;90.20
30047;DHT22;16878;52.542;13.426;2023-02-26T12:04:22;4.30;90.50
30047;DHT22;16878;52.542;13.426;2023-02-26T12:06:53;4.40;91.00
30047;DHT22;16878;52.542;13.426;2023-02-26T12:09:19;4.50;91.10
30047;DHT22;16878;52.542;13.426;2023-02-26T12:25:53;5.00;86.70
30047;DHT22;16878;52.542;13.426;2023-02-26T12:34:18;4.70;82.00
30047;DHT22;16878;52.542;13.426;2023-02-26T12:42:25;4.90;82.90
30047;DHT22;16878;52.542;13.426;2023-02-26T12:45:03;4.90;85.00
30047;DHT22;16878;52.542;13.426;2023-02-26T12:53:36;4.60;84.70
30047;DHT22;16878;52.542;13.426;2023-02-26T12:56:19;4.30;85.50
30047;DHT22;16878;52.542;13.426;2023-02-26T13:04:35;4.70;85.30
30047;DHT22;16878;52.542;13.426;2023-02-26T13:10:40;5.20;83.20
30047;DHT22;16878;52.542;13.426;2023-02-26T13:21:52;4.60;86.00
30047;DHT22;16878;52.542;13.426;2023-02-26T13:24:46;4.40;86.90
30047;DHT22;16878;52.542;13.426;2023-02-26T13:27:11;4.50;87.30
30047;DHT22;16878;52.542;13.426;2023-02-26T13:29:47;4.60;87.40
30047;DHT22;16878;52.542;13.426;2023-02-26T13:32:20;4.80;86.80
30047;DHT22;16878;52.542;13.426;2023-02-26T13:35:00;4.90;86.20
30047;DHT22;16878;52.542;13.426;2023-02-26T13:37:40;5.10;85.40
30047;DHT22;16878;52.542;13.426;2023-02-26T13:51:39;4.20;84.40
30047;DHT22;16878;52.542;13.426;2023-02-26T14:01:49;4.60;84.60
30047;DHT22;16878;52.542;13.426;2023-02-26T14:07:12;4.60;82.70
30047;DHT22;16878;52.542;13.426;2023-02-26T14:09:59;4.50;81.30
30047;DHT22;16878;52.542;13.426;2023-02-26T14:17:40;4.80;80.30
30047;DHT22;16878;52.542;13.426;2023-02-26T14:25:48;4.80;79.40
30047;DHT22;16878;52.542;13.426;2023-02-26T14:28:34;4.50;80.40
30047;DHT22;16878;52.542;13.426;2023-02-26T14:31:06;4.20;79.50
30047;DHT22;16878;52.542;13.426;2023-02-26T14:36:48;4.20;81.80
30047;DHT22;16878;52.542;13.426;2023-02-26T14:39:33;4.40;82.10
30047;DHT22;16878;52.542;13.426;2023-02-26T14:42:05;4.40;81.70
30047;DHT22;16878;52.542;13.426;2023-02-26T14:47:36;4.40;79.70
30047;DHT22;16878;52.542;13.426;2023-02-26T14:50:05;4.40;76.00
30047;DHT22;16878;52.542;13.426;2023-02-26T15:00:59;3.90;75.20
30047;DHT22;16878;52.542;13.426;2023-02-26T15:11:43;4.20;75.40
30047;DHT22;16878;52.542;13.426;2023-02-26T15:25:30;4.40;76.70
30047;DHT22;16878;52.542;13.426;2023-02-26T15:27:56;4.30;74.40
30047;DHT22;16878;52.542;13.426;2023-02-26T15:30:22;4.10;74.50
30047;DHT22;16878;52.542;13.426;2023-02-26T15:32:55;3.90;75.00
30047;DHT22;16878;52.542;13.426;2023-02-26T15:35:22;3.80;75.00
30047;DHT22;16878;52.542;13.426;2023-02-26T15:37:49;3.60;75.90
30047;DHT22;16878;52.542;13.426;2023-02-26T15:40:16;3.60;76.20
30047;DHT22;16878;52.542;13.426;2023-02-26T15:42:43;3.50;76.80
30047;DHT22;16878;52.542;13.426;2023-02-26T15:45:25;3.40;77.50
30047;DHT22;16878;52.542;13.426;2023-02-26T15:47:55;3.40;79.20
30047;DHT22;16878;52.542;13.426;2023-02-26T15:50:26;3.20;79.60
30047;DHT22;16878;52.542;13.426;2023-02-26T15:52:57;3.30;80.30
30047;DHT22;16878;52.542;13.426;2023-02-26T15:55:23;3.40;80.00
30047;DHT22;16878;52.542;13.426;2023-02-26T15:57:50;3.40;81.10
30047;DHT22;16878;52.542;13.426;2023-02-26T16:00:18;3.40;80.70
30047;DHT22;16878;52.542;13.426;2023-02-26T16:02:53;3.30;81.00
30047;DHT22;16878;52.542;13.426;2023-02-26T16:05:22;3.20;82.30
30047;DHT22;16878;52.542;13.426;2023-02-26T16:07:50;3.10;83.70
30047;DHT22;16878;52.542;13.426;2023-02-26T16:10:35;3.00;84.40
30047;DHT22;16878;52.542;13.426;2023-02-26T16:13:04;2.90;85.00
30047;DHT22;16878;52.542;13.426;2023-02-26T16:15:33;2.90;85.40
30047;DHT22;16878;52.542;13.426;2023-02-26T16:18:01;3.00;85.40
30047;DHT22;16878;52.542;13.426;2023-02-26T16:20:39;2.90;86.40
30047;DHT22;16878;52.542;13.426;2023-02-26T16:23:18;2.80;87.30
30047;DHT22;16878;52.542;13.426;2023-02-26T16:25:58;2.70;88.30
30047;DHT22;16878;52.542;13.426;2023-02-26T16:28:38;2.70;89.00
30047;DHT22;16878;52.542;13.426;2023-02-26T16:31:18;2.60;90.20
30047;DHT22;16878;52.542;13.426;2023-02-26T16:34:26;2.60;90.30
30047;DHT22;16878;52.542;13.426;2023-02-26T16:36:54;2.60;90.50
30047;DHT22;16878;52.542;13.426;2023-02-26T16:39:25;2.60;91.00
30047;DHT22;16878;52.542;13.426;2023-02-26T16:42:14;2.60;91.20
30047;DHT22;16878;52.542;13.426;2023-02-26T16:44:48;2.50;91.50
30047;DHT22;16878;52.542;13.426;2023-02-26T16:47:15;2.50;92.00
30047;DHT22;16878;52.542;13.426;2023-02-26T16:49:42;2.50;92.30
30047;DHT22;16878;52.542;13.426;2023-02-26T16:52:17;2.50;92.50
30047;DHT22;16878;52.542;13.426;2023-02-26T16:54:52;2.40;92.80
30047;DHT22;16878;52.542;13.426;2023-02-26T16:57:29;2.40;93.30
30047;DHT22;16878;52.542;13.426;2023-02-26T17:00:00;2.40;93.10
30047;DHT22;16878;52.542;13.426;2023-02-26T17:02:31;2.40;93.40
30047;DHT22;16878;52.542;13.426;2023-02-26T17:05:02;2.30;94.00
30047;DHT22;16878;52.542;13.426;2023-02-26T17:07:35;2.20;94.10
30047;DHT22;16878;52.542;13.426;2023-02-26T17:10:12;2.20;94.30
30047;DHT22;16878;52.542;13.426;2023-02-26T17:12:46;2.20;94.70
30047;DHT22;16878;52.542;13.426;2023-02-26T17:15:27;2.20;94.70
30047;DHT22;16878;52.542;13.426;2023-02-26T17:17:54;2.40;94.70
30047;DHT22;16878;52.542;13.426;2023-02-26T17:20:23;2.40;94.70
30047;DHT22;16878;52.542;13.426;2023-02-26T17:22:49;2.40;94.60
30047;DHT22;16878;52.542;13.426;2023-02-26T17:25:17;2.40;94.80
30047;DHT22;16878;52.542;13.426;2023-02-26T17:27:44;2.40;94.60
30047;DHT22;16878;52.542;13.426;2023-02-26T17:30:14;2.50;94.70
30047;DHT22;16878;52.542;13.426;2023-02-26T17:32:41;2.60;94.70
30047;DHT22;16878;52.542;13.426;2023-02-26T17:35:07;2.60;94.70
30047;DHT22;16878;52.542;13.426;2023-02-26T17:37:34;2.60;94.70
30047;DHT22;16878;52.542;13.426;2023-02-26T17:40:14;2.60;94.90
30047;DHT22;16878;52.542;13.426;2023-02-26T17:42:41;2.60;94.70
30047;DHT22;16878;52.542;13.426;2023-02-26T17:45:07;2.50;94.80
30047;DHT22;16878;52.542;13.426;2023-02-26T17:47:33;2.50;95.10
30047;DHT22;16878;52.542;13.426;2023-02-26T17:49:59;2.40;95.30
30047;DHT22;16878;52.542;13.426;2023-02-26T17:52:25;2.40;95.50
30047;DHT22;16878;52.542;13.426;2023-02-26T17:54:51;2.30;95.80
30047;DHT22;16878;52.542;13.426;2023-02-26T17:57:20;2.20;96.30
30047;DHT22;16878;52.542;13.426;2023-02-26T17:59:48;2.10;96.30
30047;DHT22;16878;52.542;13.426;2023-02-26T18:02:21;2.10;96.50
30047;DHT22;16878;52.542;13.426;2023-02-26T18:04:47;1.90;96.80
30047;DHT22;16878;52.542;13.426;2023-02-26T18:07:17;1.90;97.20
30047;DHT22;16878;52.542;13.426;2023-02-26T18:09:44;1.90;97.30
30047;DHT22;16878;52.542;13.426;2023-02-26T18:12:16;2.00;96.90
30047;DHT22;16878;52.542;13.426;2023-02-26T18:14:42;2.00;96.80
30047;DHT22;16878;52.542;13.426;2023-02-26T18:17:21;1.90;96.90
30047;DHT22;16878;52.542;13.426;2023-02-26T18:19:47;1.80;97.40
30047;DHT22;16878;52.542;13.426;2023-02-26T18:22:19;1.80;97.50
30047;DHT22;16878;52.542;13.426;2023-02-26T18:24:46;1.80;97.70
30047;DHT22;16878;52.542;13.426;2023-02-26T18:27:14;1.80;97.70
30047;DHT22;16878;52.542;13.426;2023-02-26T18:29:40;1.80;97.80
30047;DHT22;16878;52.542;13.426;2023-02-26T18:32:08;1.70;97.70
30047;DHT22;16878;52.542;13.426;2023-02-26T18:34:36;1.70;97.80
30047;DHT22;16878;52.542;13.426;2023-02-26T18:37:02;1.70;97.70
30047;DHT22;16878;52.542;13.426;2023-02-26T18:39:29;1.60;97.80
30047;DHT22;16878;52.542;13.426;2023-02-26T18:42:00;1.70;97.80
30047;DHT22;16878;52.542;13.426;2023-02-26T18:44:27;1.60;97.80
30047;DHT22;16878;52.542;13.426;2023-02-26T18:46:56;1.60;98.00
30047;DHT22;16878;52.542;13.426;2023-02-26T18:49:22;1.60;98.30
30047;DHT22;16878;52.542;13.426;2023-02-26T18:51:48;1.50;98.30
30047;DHT22;16878;52.542;13.426;2023-02-26T18:54:14;1.50;98.10
30047;DHT22;16878;52.542;13.426;2023-02-26T18:56:40;1.50;98.10
30047;DHT22;16878;52.542;13.426;2023-02-26T18:59:06;1.40;98.30
30047;DHT22;16878;52.542;13.426;2023-02-26T19:01:32;1.40;98.50